sensor_id;sensor_type;location;lat;lon;timestamp;P1;durP1;ratioP1;P2;durP2;ratioP2
35223;SDS011;21367;51.930;8.112;2023-05-27T00:04:47;35.63;;;5.93;;
35223;SDS011;21367;51.930;8.112;2023-05-27T00:09:51;25.48;;;5.10;;
35223;SDS011;21367;51.930;8.112;2023-05-27T00:15:03;30.25;;;5.32;;
35223;SDS011;21367;51.930;8.112;2023-05-27T00:20:08;21.45;;;5.00;;
35223;SDS011;21367;51.930;8.112;2023-05-27T00:25:15;19.40;;;4.88;;
35223;SDS011;21367;51.930;8.112;2023-05-27T00:30:23;36.03;;;6.30;;
35223;SDS011;21367;51.930;8.112;2023-05-27T00:35:28;23.88;;;4.95;;
35223;SDS011;21367;51.930;8.112;2023-05-27T00:40:34;41.73;;;4.93;;
35223;SDS011;21367;51.930;8.112;2023-05-27T00:45:41;30.55;;;5.15;;
35223;SDS011;21367;51.930;8.112;2023-05-27T00:50:45;24.08;;;6.15;;
35223;SDS011;21367;51.930;8.112;2023-05-27T00:55:50;22.10;;;5.28;;
35223;SDS011;21367;51.930;8.112;2023-05-27T01:01:03;24.75;;;5.05;;
35223;SDS011;21367;51.930;8.112;2023-05-27T01:06:11;25.42;;;5.00;;
35223;SDS011;21367;51.930;8.112;2023-05-27T01:11:22;27.45;;;5.20;;
35223;SDS011;21367;51.930;8.112;2023-05-27T01:16:38;38.17;;;5.38;;
35223;SDS011;21367;51.930;8.112;2023-05-27T01:21:45;24.20;;;4.88;;
35223;SDS011;21367;51.930;8.112;2023-05-27T01:26:54;20.30;;;4.88;;
35223;SDS011;21367;51.930;8.112;2023-05-27T01:32:03;30.77;;;5.00;;
35223;SDS011;21367;51.930;8.112;2023-05-27T01:37:12;26.35;;;5.43;;
35223;SDS011;21367;51.930;8.112;2023-05-27T01:42:24;34.42;;;5.35;;
35223;SDS011;21367;51.930;8.112;2023-05-27T01:47:27;23.35;;;5.15;;
35223;SDS011;21367;51.930;8.112;2023-05-27T01:52:31;30.33;;;5.40;;
35223;SDS011;21367;51.930;8.112;2023-05-27T01:57:39;31.13;;;5.78;;
35223;SDS011;21367;51.930;8.112;2023-05-27T02:02:43;28.58;;;5.63;;
35223;SDS011;21367;51.930;8.112;2023-05-27T02:07:48;27.75;;;5.72;;
35223;SDS011;21367;51.930;8.112;2023-05-27T02:12:55;33.50;;;7.35;;
35223;SDS011;21367;51.930;8.112;2023-05-27T02:18:00;28.30;;;4.95;;
35223;SDS011;21367;51.930;8.112;2023-05-27T02:23:06;38.25;;;5.38;;
35223;SDS011;21367;51.930;8.112;2023-05-27T02:28:13;22.23;;;5.85;;
35223;SDS011;21367;51.930;8.112;2023-05-27T02:33:18;34.58;;;5.68;;
35223;SDS011;21367;51.930;8.112;2023-05-27T02:38:22;22.55;;;4.95;;
35223;SDS011;21367;51.930;8.112;2023-05-27T02:43:29;31.30;;;5.78;;
35223;SDS011;21367;51.930;8.112;2023-05-27T02:48:33;35.20;;;5.45;;
35223;SDS011;21367;51.930;8.112;2023-05-27T02:53:37;30.70;;;5.30;;
35223;SDS011;21367;51.930;8.112;2023-05-27T02:58:44;30.88;;;5.30;;
35223;SDS011;21367;51.930;8.112;2023-05-27T03:08:53;32.03;;;5.45;;
35223;SDS011;21367;51.930;8.112;2023-05-27T03:13:59;25.20;;;4.75;;
35223;SDS011;21367;51.930;8.112;2023-05-27T03:19:04;23.40;;;4.90;;
35223;SDS011;21367;51.930;8.112;2023-05-27T03:24:09;31.08;;;5.07;;
35223;SDS011;21367;51.930;8.112;2023-05-27T03:29:19;26.40;;;5.43;;
35223;SDS011;21367;51.930;8.112;2023-05-27T03:34:23;30.17;;;5.75;;
35223;SDS011;21367;51.930;8.112;2023-05-27T03:39:28;20.90;;;6.75;;
35223;SDS011;21367;51.930;8.112;2023-05-27T03:54:44;27.45;;;4.80;;
35223;SDS011;21367;51.930;8.112;2023-05-27T03:59:51;27.23;;;5.80;;
35223;SDS011;21367;51.930;8.112;2023-05-27T04:04:56;33.35;;;5.95;;
35223;SDS011;21367;51.930;8.112;2023-05-27T04:10:00;27.27;;;4.75;;
35223;SDS011;21367;51.930;8.112;2023-05-27T04:15:09;29.77;;;5.50;;
35223;SDS011;21367;51.930;8.112;2023-05-27T04:20:13;19.45;;;5.10;;
35223;SDS011;21367;51.930;8.112;2023-05-27T04:25:20;21.25;;;5.35;;
35223;SDS011;21367;51.930;8.112;2023-05-27T04:30:40;23.10;;;5.20;;
35223;SDS011;21367;51.930;8.112;2023-05-27T04:35:52;22.88;;;5.72;;
35223;SDS011;21367;51.930;8.112;2023-05-27T04:41:01;26.88;;;5.82;;
35223;SDS011;21367;51.930;8.112;2023-05-27T04:46:39;24.77;;;5.68;;
35223;SDS011;21367;51.930;8.112;2023-05-27T04:51:44;28.50;;;6.30;;
35223;SDS011;21367;51.930;8.112;2023-05-27T04:56:51;31.58;;;6.05;;
35223;SDS011;21367;51.930;8.112;2023-05-27T05:02:03;33.88;;;6.68;;
35223;SDS011;21367;51.930;8.112;2023-05-27T05:07:34;32.08;;;5.80;;
35223;SDS011;21367;51.930;8.112;2023-05-27T05:12:41;36.38;;;6.32;;
35223;SDS011;21367;51.930;8.112;2023-05-27T05:17:47;32.22;;;6.30;;
35223;SDS011;21367;51.930;8.112;2023-05-27T05:22:52;35.92;;;6.47;;
35223;SDS011;21367;51.930;8.112;2023-05-27T05:27:57;38.77;;;7.80;;
35223;SDS011;21367;51.930;8.112;2023-05-27T05:33:04;41.70;;;7.97;;
35223;SDS011;21367;51.930;8.112;2023-05-27T05:38:08;36.45;;;7.43;;
35223;SDS011;21367;51.930;8.112;2023-05-27T05:43:13;36.08;;;6.45;;
35223;SDS011;21367;51.930;8.112;2023-05-27T05:48:19;33.38;;;7.38;;
35223;SDS011;21367;51.930;8.112;2023-05-27T05:53:24;48.00;;;7.32;;
35223;SDS011;21367;51.930;8.112;2023-05-27T05:58:32;37.33;;;7.45;;
35223;SDS011;21367;51.930;8.112;2023-05-27T06:03:38;34.42;;;7.43;;
35223;SDS011;21367;51.930;8.112;2023-05-27T06:08:48;28.05;;;6.20;;
35223;SDS011;21367;51.930;8.112;2023-05-27T06:13:51;39.55;;;7.63;;
35223;SDS011;21367;51.930;8.112;2023-05-27T06:18:58;32.55;;;6.60;;
35223;SDS011;21367;51.930;8.112;2023-05-27T06:24:03;39.55;;;7.47;;
35223;SDS011;21367;51.930;8.112;2023-05-27T06:29:13;33.85;;;8.10;;
35223;SDS011;21367;51.930;8.112;2023-05-27T06:34:21;42.13;;;7.40;;
35223;SDS011;21367;51.930;8.112;2023-05-27T06:39:26;35.72;;;7.63;;
35223;SDS011;21367;51.930;8.112;2023-05-27T06:44:29;40.05;;;7.30;;
35223;SDS011;21367;51.930;8.112;2023-05-27T06:49:44;39.67;;;7.97;;
35223;SDS011;21367;51.930;8.112;2023-05-27T06:54:48;37.80;;;8.02;;
35223;SDS011;21367;51.930;8.112;2023-05-27T07:00:12;37.42;;;8.20;;
35223;SDS011;21367;51.930;8.112;2023-05-27T07:05:31;34.13;;;7.15;;
35223;SDS011;21367;51.930;8.112;2023-05-27T07:10:36;34.08;;;7.10;;
35223;SDS011;21367;51.930;8.112;2023-05-27T07:15:40;34.22;;;6.82;;
35223;SDS011;21367;51.930;8.112;2023-05-27T07:20:46;31.60;;;6.65;;
35223;SDS011;21367;51.930;8.112;2023-05-27T07:25:51;26.00;;;6.65;;
35223;SDS011;21367;51.930;8.112;2023-05-27T07:30:57;32.13;;;7.23;;
35223;SDS011;21367;51.930;8.112;2023-05-27T07:36:06;34.10;;;8.10;;
35223;SDS011;21367;51.930;8.112;2023-05-27T07:41:10;40.30;;;7.40;;
35223;SDS011;21367;51.930;8.112;2023-05-27T07:46:15;31.00;;;6.20;;
35223;SDS011;21367;51.930;8.112;2023-05-27T07:51:23;37.87;;;7.37;;
35223;SDS011;21367;51.930;8.112;2023-05-27T08:29:23;26.75;;;5.72;;
35223;SDS011;21367;51.930;8.112;2023-05-27T08:34:49;27.88;;;6.15;;
35223;SDS011;21367;51.930;8.112;2023-05-27T08:39:57;33.03;;;5.75;;
35223;SDS011;21367;51.930;8.112;2023-05-27T08:45:13;29.73;;;5.50;;
35223;SDS011;21367;51.930;8.112;2023-05-27T08:50:17;31.95;;;6.07;;
35223;SDS011;21367;51.930;8.112;2023-05-27T08:55:22;35.10;;;6.85;;
35223;SDS011;21367;51.930;8.112;2023-05-27T09:00:31;30.10;;;5.63;;
35223;SDS011;21367;51.930;8.112;2023-05-27T09:05:47;28.40;;;6.10;;
35223;SDS011;21367;51.930;8.112;2023-05-27T09:10:51;32.72;;;6.28;;
35223;SDS011;21367;51.930;8.112;2023-05-27T09:16:02;32.78;;;6.30;;
35223;SDS011;21367;51.930;8.112;2023-05-27T09:21:07;31.08;;;7.25;;
35223;SDS011;21367;51.930;8.112;2023-05-27T09:26:11;33.38;;;6.57;;
35223;SDS011;21367;51.930;8.112;2023-05-27T09:31:20;27.80;;;6.80;;
35223;SDS011;21367;51.930;8.112;2023-05-27T09:36:25;31.23;;;6.60;;
35223;SDS011;21367;51.930;8.112;2023-05-27T09:41:29;24.98;;;6.65;;
35223;SDS011;21367;51.930;8.112;2023-05-27T09:46:36;30.95;;;5.63;;
35223;SDS011;21367;51.930;8.112;2023-05-27T09:51:41;25.50;;;5.90;;
35223;SDS011;21367;51.930;8.112;2023-05-27T09:56:46;21.48;;;5.85;;
35223;SDS011;21367;51.930;8.112;2023-05-27T10:01:55;23.95;;;6.47;;
35223;SDS011;21367;51.930;8.112;2023-05-27T10:07:01;23.90;;;6.22;;
35223;SDS011;21367;51.930;8.112;2023-05-27T10:12:06;28.77;;;6.53;;
35223;SDS011;21367;51.930;8.112;2023-05-27T10:17:13;25.92;;;6.30;;
35223;SDS011;21367;51.930;8.112;2023-05-27T10:22:17;29.25;;;5.80;;
35223;SDS011;21367;51.930;8.112;2023-05-27T10:27:21;28.85;;;6.75;;
35223;SDS011;21367;51.930;8.112;2023-05-27T10:32:28;26.83;;;6.22;;
35223;SDS011;21367;51.930;8.112;2023-05-27T10:37:32;25.50;;;6.00;;
35223;SDS011;21367;51.930;8.112;2023-05-27T10:42:37;19.80;;;6.15;;
35223;SDS011;21367;51.930;8.112;2023-05-27T10:47:46;26.52;;;5.80;;
35223;SDS011;21367;51.930;8.112;2023-05-27T10:52:50;23.35;;;6.03;;
35223;SDS011;21367;51.930;8.112;2023-05-27T10:57:58;18.40;;;4.97;;
35223;SDS011;21367;51.930;8.112;2023-05-27T11:03:15;18.80;;;5.50;;
35223;SDS011;21367;51.930;8.112;2023-05-27T11:08:22;21.92;;;5.72;;
35223;SDS011;21367;51.930;8.112;2023-05-27T11:13:32;26.13;;;6.03;;
35223;SDS011;21367;51.930;8.112;2023-05-27T11:18:43;23.30;;;5.55;;
35223;SDS011;21367;51.930;8.112;2023-05-27T11:23:50;19.67;;;5.53;;
35223;SDS011;21367;51.930;8.112;2023-05-27T11:28:55;22.05;;;5.63;;
35223;SDS011;21367;51.930;8.112;2023-05-27T11:34:04;21.52;;;5.22;;
35223;SDS011;21367;51.930;8.112;2023-05-27T11:39:10;23.75;;;5.40;;
35223;SDS011;21367;51.930;8.112;2023-05-27T11:44:17;19.67;;;5.60;;
35223;SDS011;21367;51.930;8.112;2023-05-27T11:49:25;14.57;;;4.60;;
35223;SDS011;21367;51.930;8.112;2023-05-27T11:54:30;21.52;;;4.53;;
35223;SDS011;21367;51.930;8.112;2023-05-27T11:59:34;13.30;;;4.13;;
35223;SDS011;21367;51.930;8.112;2023-05-27T12:04:41;16.92;;;4.15;;
35223;SDS011;21367;51.930;8.112;2023-05-27T12:09:46;14.18;;;4.22;;
35223;SDS011;21367;51.930;8.112;2023-05-27T12:14:52;11.93;;;3.90;;
35223;SDS011;21367;51.930;8.112;2023-05-27T12:20:01;20.42;;;4.25;;
35223;SDS011;21367;51.930;8.112;2023-05-27T12:25:09;18.40;;;4.05;;
35223;SDS011;21367;51.930;8.112;2023-05-27T12:30:14;15.63;;;3.83;;
35223;SDS011;21367;51.930;8.112;2023-05-27T12:35:26;11.20;;;4.07;;
35223;SDS011;21367;51.930;8.112;2023-05-27T12:40:34;15.13;;;3.72;;
35223;SDS011;21367;51.930;8.112;2023-05-27T12:46:29;10.48;;;3.67;;
35223;SDS011;21367;51.930;8.112;2023-05-27T13:08:43;12.15;;;3.38;;
35223;SDS011;21367;51.930;8.112;2023-05-27T13:13:47;11.18;;;3.55;;
35223;SDS011;21367;51.930;8.112;2023-05-27T13:18:59;12.90;;;3.63;;
35223;SDS011;21367;51.930;8.112;2023-05-27T13:24:20;12.77;;;3.58;;
35223;SDS011;21367;51.930;8.112;2023-05-27T13:29:24;15.63;;;3.90;;
35223;SDS011;21367;51.930;8.112;2023-05-27T13:34:35;13.20;;;3.85;;
35223;SDS011;21367;51.930;8.112;2023-05-27T13:50:05;12.82;;;3.65;;
35223;SDS011;21367;51.930;8.112;2023-05-27T13:55:13;12.13;;;3.42;;
35223;SDS011;21367;51.930;8.112;2023-05-27T14:00:18;10.73;;;3.37;;
35223;SDS011;21367;51.930;8.112;2023-05-27T14:05:30;13.05;;;3.47;;
35223;SDS011;21367;51.930;8.112;2023-05-27T14:10:36;11.10;;;3.30;;
35223;SDS011;21367;51.930;8.112;2023-05-27T14:15:46;15.48;;;4.03;;
35223;SDS011;21367;51.930;8.112;2023-05-27T14:21:10;8.48;;;3.08;;
35223;SDS011;21367;51.930;8.112;2023-05-27T14:26:34;13.40;;;3.33;;
35223;SDS011;21367;51.930;8.112;2023-05-27T14:31:38;11.67;;;3.90;;
35223;SDS011;21367;51.930;8.112;2023-05-27T14:42:14;12.50;;;3.55;;
35223;SDS011;21367;51.930;8.112;2023-05-27T14:47:23;11.32;;;3.50;;
35223;SDS011;21367;51.930;8.112;2023-05-27T14:52:35;11.07;;;3.47;;
35223;SDS011;21367;51.930;8.112;2023-05-27T14:57:40;10.05;;;3.95;;
35223;SDS011;21367;51.930;8.112;2023-05-27T15:03:02;8.95;;;3.45;;
35223;SDS011;21367;51.930;8.112;2023-05-27T15:13:40;13.68;;;3.67;;
35223;SDS011;21367;51.930;8.112;2023-05-27T15:54:53;14.45;;;4.50;;
35223;SDS011;21367;51.930;8.112;2023-05-27T15:59:57;11.25;;;4.00;;
35223;SDS011;21367;51.930;8.112;2023-05-27T16:05:00;9.95;;;4.03;;
35223;SDS011;21367;51.930;8.112;2023-05-27T16:10:07;14.95;;;7.90;;
35223;SDS011;21367;51.930;8.112;2023-05-27T16:15:11;25.52;;;8.77;;
35223;SDS011;21367;51.930;8.112;2023-05-27T16:20:15;92.97;;;45.05;;
35223;SDS011;21367;51.930;8.112;2023-05-27T16:25:21;188.43;;;101.95;;
35223;SDS011;21367;51.930;8.112;2023-05-27T16:30:25;143.38;;;84.57;;
35223;SDS011;21367;51.930;8.112;2023-05-27T16:35:29;198.48;;;118.45;;
35223;SDS011;21367;51.930;8.112;2023-05-27T16:40:35;963.58;;;627.50;;
35223;SDS011;21367;51.930;8.112;2023-05-27T16:45:39;504.00;;;331.58;;
35223;SDS011;21367;51.930;8.112;2023-05-27T16:50:43;200.00;;;118.85;;
35223;SDS011;21367;51.930;8.112;2023-05-27T16:55:49;74.65;;;41.25;;
35223;SDS011;21367;51.930;8.112;2023-05-27T17:00:56;113.10;;;67.07;;
35223;SDS011;21367;51.930;8.112;2023-05-27T17:06:00;15.68;;;5.70;;
35223;SDS011;21367;51.930;8.112;2023-05-27T17:11:07;9.95;;;3.72;;
35223;SDS011;21367;51.930;8.112;2023-05-27T17:16:11;11.65;;;3.53;;
35223;SDS011;21367;51.930;8.112;2023-05-27T17:21:15;9.77;;;3.55;;
35223;SDS011;21367;51.930;8.112;2023-05-27T17:26:21;15.15;;;3.92;;
35223;SDS011;21367;51.930;8.112;2023-05-27T17:31:26;13.85;;;4.07;;
35223;SDS011;21367;51.930;8.112;2023-05-27T17:36:30;13.70;;;4.07;;
35223;SDS011;21367;51.930;8.112;2023-05-27T17:41:36;10.60;;;3.30;;
35223;SDS011;21367;51.930;8.112;2023-05-27T17:46:40;11.13;;;4.30;;
35223;SDS011;21367;51.930;8.112;2023-05-27T17:51:44;16.35;;;4.80;;
35223;SDS011;21367;51.930;8.112;2023-05-27T17:56:50;23.10;;;4.72;;
35223;SDS011;21367;51.930;8.112;2023-05-27T18:01:54;15.20;;;3.63;;
35223;SDS011;21367;51.930;8.112;2023-05-27T18:06:58;12.35;;;3.88;;
35223;SDS011;21367;51.930;8.112;2023-05-27T18:12:04;13.52;;;4.05;;
35223;SDS011;21367;51.930;8.112;2023-05-27T18:17:08;13.75;;;4.30;;
35223;SDS011;21367;51.930;8.112;2023-05-27T18:22:12;15.32;;;4.40;;
35223;SDS011;21367;51.930;8.112;2023-05-27T18:27:18;16.20;;;4.47;;
35223;SDS011;21367;51.930;8.112;2023-05-27T18:32:22;16.92;;;4.75;;
35223;SDS011;21367;51.930;8.112;2023-05-27T18:37:25;14.55;;;3.92;;
35223;SDS011;21367;51.930;8.112;2023-05-27T18:42:31;13.10;;;3.78;;
35223;SDS011;21367;51.930;8.112;2023-05-27T18:47:35;14.90;;;3.80;;
35223;SDS011;21367;51.930;8.112;2023-05-27T18:52:39;15.13;;;4.15;;
35223;SDS011;21367;51.930;8.112;2023-05-27T18:57:45;11.48;;;4.03;;
35223;SDS011;21367;51.930;8.112;2023-05-27T19:02:50;14.45;;;3.67;;
35223;SDS011;21367;51.930;8.112;2023-05-27T19:07:54;11.70;;;4.00;;
35223;SDS011;21367;51.930;8.112;2023-05-27T19:13:00;17.90;;;4.18;;
35223;SDS011;21367;51.930;8.112;2023-05-27T19:18:04;10.35;;;4.13;;
35223;SDS011;21367;51.930;8.112;2023-05-27T19:23:08;15.13;;;4.47;;
35223;SDS011;21367;51.930;8.112;2023-05-27T19:28:14;16.58;;;4.60;;
35223;SDS011;21367;51.930;8.112;2023-05-27T19:33:18;12.15;;;4.30;;
35223;SDS011;21367;51.930;8.112;2023-05-27T19:38:22;10.15;;;4.05;;
35223;SDS011;21367;51.930;8.112;2023-05-27T19:43:30;12.25;;;4.15;;
35223;SDS011;21367;51.930;8.112;2023-05-27T19:48:34;11.40;;;4.05;;
35223;SDS011;21367;51.930;8.112;2023-05-27T19:53:40;15.55;;;4.68;;
35223;SDS011;21367;51.930;8.112;2023-05-27T19:58:47;14.30;;;4.35;;
35223;SDS011;21367;51.930;8.112;2023-05-27T20:03:51;11.27;;;3.83;;
35223;SDS011;21367;51.930;8.112;2023-05-27T20:08:57;14.50;;;4.35;;
35223;SDS011;21367;51.930;8.112;2023-05-27T20:14:03;17.20;;;4.95;;
35223;SDS011;21367;51.930;8.112;2023-05-27T20:19:07;22.70;;;4.93;;
35223;SDS011;21367;51.930;8.112;2023-05-27T20:24:11;11.10;;;4.22;;
35223;SDS011;21367;51.930;8.112;2023-05-27T20:29:18;16.50;;;5.07;;
35223;SDS011;21367;51.930;8.112;2023-05-27T20:39:24;17.13;;;4.75;;
35223;SDS011;21367;51.930;8.112;2023-05-27T20:44:31;16.00;;;5.97;;
35223;SDS011;21367;51.930;8.112;2023-05-27T20:49:34;19.70;;;5.82;;
35223;SDS011;21367;51.930;8.112;2023-05-27T20:54:38;25.58;;;7.00;;
35223;SDS011;21367;51.930;8.112;2023-05-27T20:59:45;26.27;;;8.18;;
35223;SDS011;21367;51.930;8.112;2023-05-27T21:04:48;18.15;;;7.30;;
35223;SDS011;21367;51.930;8.112;2023-05-27T21:09:52;17.13;;;7.18;;
35223;SDS011;21367;51.930;8.112;2023-05-27T21:14:59;20.65;;;7.20;;
35223;SDS011;21367;51.930;8.112;2023-05-27T21:25:07;17.20;;;6.28;;
35223;SDS011;21367;51.930;8.112;2023-05-27T21:30:14;23.38;;;7.53;;
35223;SDS011;21367;51.930;8.112;2023-05-27T21:35:17;25.70;;;10.48;;
35223;SDS011;21367;51.930;8.112;2023-05-27T21:40:21;30.73;;;11.10;;
35223;SDS011;21367;51.930;8.112;2023-05-27T21:45:27;28.23;;;8.70;;
35223;SDS011;21367;51.930;8.112;2023-05-27T21:50:33;25.92;;;8.57;;
35223;SDS011;21367;51.930;8.112;2023-05-27T21:55:37;67.50;;;27.48;;
35223;SDS011;21367;51.930;8.112;2023-05-27T22:00:44;105.50;;;44.58;;
35223;SDS011;21367;51.930;8.112;2023-05-27T22:05:48;47.72;;;20.08;;
35223;SDS011;21367;51.930;8.112;2023-05-27T22:10:51;25.67;;;8.65;;
35223;SDS011;21367;51.930;8.112;2023-05-27T22:15:58;13.30;;;6.13;;
35223;SDS011;21367;51.930;8.112;2023-05-27T22:26:05;19.63;;;6.05;;
35223;SDS011;21367;51.930;8.112;2023-05-27T22:31:11;18.02;;;5.60;;
35223;SDS011;21367;51.930;8.112;2023-05-27T22:36:14;14.63;;;5.63;;
35223;SDS011;21367;51.930;8.112;2023-05-27T22:41:18;14.98;;;5.05;;
35223;SDS011;21367;51.930;8.112;2023-05-27T22:46:25;15.10;;;5.03;;
35223;SDS011;21367;51.930;8.112;2023-05-27T22:51:29;12.95;;;4.75;;
35223;SDS011;21367;51.930;8.112;2023-05-27T22:56:32;15.23;;;5.07;;
35223;SDS011;21367;51.930;8.112;2023-05-27T23:01:38;17.50;;;4.80;;
35223;SDS011;21367;51.930;8.112;2023-05-27T23:06:42;16.58;;;4.47;;
35223;SDS011;21367;51.930;8.112;2023-05-27T23:11:46;14.68;;;5.22;;
35223;SDS011;21367;51.930;8.112;2023-05-27T23:16:52;11.07;;;5.13;;
35223;SDS011;21367;51.930;8.112;2023-05-27T23:21:58;12.20;;;4.78;;
35223;SDS011;21367;51.930;8.112;2023-05-27T23:27:02;20.70;;;5.03;;
35223;SDS011;21367;51.930;8.112;2023-05-27T23:32:08;16.42;;;5.10;;
35223;SDS011;21367;51.930;8.112;2023-05-27T23:42:15;19.55;;;5.22;;
35223;SDS011;21367;51.930;8.112;2023-05-27T23:47:21;13.77;;;4.60;;
35223;SDS011;21367;51.930;8.112;2023-05-27T23:52:25;17.73;;;5.00;;
35223;SDS011;21367;51.930;8.112;2023-05-27T23:57:28;15.32;;;5.50;;
